Aviation Digital Data Service (ADDS)

Output produced by METARs form (0129 UTC 22 September 2018)
found at http://aviationweather.gov/metar/data/
 
KOEO 220115Z AUTO 00000KT 10SM CLR 07/06 A3033 RMK AO2 T00740059